sensor_id;sensor_type;location;lat;lon;timestamp;pressure;altitude;pressure_sealevel;temperature;humidity
9695;BME280;4690;52.422;13.486;2023-04-08T00:04:44;101749.28;;;7.68;95.63
9695;BME280;4690;52.422;13.486;2023-04-08T00:07:10;101748.50;;;7.59;95.89
9695;BME280;4690;52.422;13.486;2023-04-08T00:09:36;101759.72;;;7.64;95.60
9695;BME280;4690;52.422;13.486;2023-04-08T00:12:01;101754.94;;;7.67;95.70
9695;BME280;4690;52.422;13.486;2023-04-08T00:14:27;101748.44;;;7.68;95.57
9695;BME280;4690;52.422;13.486;2023-04-08T00:16:53;101750.31;;;7.67;95.94
9695;BME280;4690;52.422;13.486;2023-04-08T00:19:19;101748.31;;;7.61;95.93
9695;BME280;4690;52.422;13.486;2023-04-08T00:21:45;101750.84;;;7.62;95.57
9695;BME280;4690;52.422;13.486;2023-04-08T00:24:12;101754.09;;;7.66;95.54
9695;BME280;4690;52.422;13.486;2023-04-08T00:26:38;101751.91;;;7.61;95.60
9695;BME280;4690;52.422;13.486;2023-04-08T00:29:03;101751.22;;;7.59;95.95
9695;BME280;4690;52.422;13.486;2023-04-08T00:31:29;101753.31;;;7.57;95.72
9695;BME280;4690;52.422;13.486;2023-04-08T00:33:55;101756.69;;;7.59;95.61
9695;BME280;4690;52.422;13.486;2023-04-08T00:36:21;101762.91;;;7.45;95.66
9695;BME280;4690;52.422;13.486;2023-04-08T00:38:47;101752.22;;;7.44;96.25
9695;BME280;4690;52.422;13.486;2023-04-08T00:41:13;101758.31;;;7.46;96.34
9695;BME280;4690;52.422;13.486;2023-04-08T00:43:38;101763.13;;;7.44;96.48
9695;BME280;4690;52.422;13.486;2023-04-08T00:46:04;101746.69;;;7.52;96.49
9695;BME280;4690;52.422;13.486;2023-04-08T00:48:31;101748.75;;;7.50;95.98
9695;BME280;4690;52.422;13.486;2023-04-08T00:50:57;101757.41;;;7.53;96.36
9695;BME280;4690;52.422;13.486;2023-04-08T00:53:23;101757.88;;;7.57;96.15
9695;BME280;4690;52.422;13.486;2023-04-08T00:55:49;101750.06;;;7.54;96.22
9695;BME280;4690;52.422;13.486;2023-04-08T00:58:17;101760.97;;;7.54;96.29
9695;BME280;4690;52.422;13.486;2023-04-08T01:00:55;101750.06;;;7.54;96.21
9695;BME280;4690;52.422;13.486;2023-04-08T01:03:49;101755.53;;;7.54;96.49
9695;BME280;4690;52.422;13.486;2023-04-08T01:09:17;101753.94;;;7.36;96.85
9695;BME280;4690;52.422;13.486;2023-04-08T01:11:45;101757.09;;;7.25;96.84
9695;BME280;4690;52.422;13.486;2023-04-08T01:14:22;101760.66;;;7.26;96.89
9695;BME280;4690;52.422;13.486;2023-04-08T01:16:54;101765.94;;;7.27;97.29
9695;BME280;4690;52.422;13.486;2023-04-08T01:19:34;101763.91;;;7.29;97.27
9695;BME280;4690;52.422;13.486;2023-04-08T01:22:38;101774.13;;;7.27;97.64
9695;BME280;4690;52.422;13.486;2023-04-08T01:25:15;101772.78;;;7.23;97.45
9695;BME280;4690;52.422;13.486;2023-04-08T01:27:42;101779.56;;;7.27;97.54
9695;BME280;4690;52.422;13.486;2023-04-08T01:30:10;101773.97;;;7.21;97.41
9695;BME280;4690;52.422;13.486;2023-04-08T01:32:38;101778.81;;;7.10;98.28
9695;BME280;4690;52.422;13.486;2023-04-08T01:35:06;101769.16;;;7.00;98.44
9695;BME280;4690;52.422;13.486;2023-04-08T01:37:34;101773.41;;;7.02;98.91
9695;BME280;4690;52.422;13.486;2023-04-08T01:40:02;101773.84;;;7.14;99.00
9695;BME280;4690;52.422;13.486;2023-04-08T01:42:30;101769.44;;;7.13;98.93
9695;BME280;4690;52.422;13.486;2023-04-08T01:44:59;101776.91;;;7.19;98.65
9695;BME280;4690;52.422;13.486;2023-04-08T01:47:27;101782.34;;;7.19;98.28
9695;BME280;4690;52.422;13.486;2023-04-08T01:49:55;101780.31;;;7.21;98.60
9695;BME280;4690;52.422;13.486;2023-04-08T01:52:22;101780.31;;;7.21;98.23
9695;BME280;4690;52.422;13.486;2023-04-08T01:54:50;101774.81;;;7.29;98.24
9695;BME280;4690;52.422;13.486;2023-04-08T01:57:23;101774.13;;;7.27;97.74
9695;BME280;4690;52.422;13.486;2023-04-08T01:59:55;101781.75;;;7.32;98.27
9695;BME280;4690;52.422;13.486;2023-04-08T02:02:25;101775.28;;;7.33;98.10
9695;BME280;4690;52.422;13.486;2023-04-08T02:04:53;101775.50;;;7.23;97.87
9695;BME280;4690;52.422;13.486;2023-04-08T02:07:19;101780.53;;;7.34;98.20
9695;BME280;4690;52.422;13.486;2023-04-08T02:09:45;101786.72;;;7.28;98.04
9695;BME280;4690;52.422;13.486;2023-04-08T02:12:11;101783.31;;;7.26;98.02
9695;BME280;4690;52.422;13.486;2023-04-08T02:14:37;101788.59;;;7.28;98.04
9695;BME280;4690;52.422;13.486;2023-04-08T02:17:22;101795.44;;;7.24;98.40
9695;BME280;4690;52.422;13.486;2023-04-08T02:20:09;101786.41;;;7.23;98.34
9695;BME280;4690;52.422;13.486;2023-04-08T02:25:28;101798.72;;;7.19;99.03
9695;BME280;4690;52.422;13.486;2023-04-08T02:27:55;101799.91;;;7.16;98.60
9695;BME280;4690;52.422;13.486;2023-04-08T02:30:24;101796.69;;;7.13;98.70
9695;BME280;4690;52.422;13.486;2023-04-08T02:32:53;101802.47;;;7.18;98.96
9695;BME280;4690;52.422;13.486;2023-04-08T02:35:22;101801.22;;;7.21;98.52
9695;BME280;4690;52.422;13.486;2023-04-08T02:37:48;101810.13;;;7.14;98.61
9695;BME280;4690;52.422;13.486;2023-04-08T02:40:30;101803.44;;;7.25;99.07
9695;BME280;4690;52.422;13.486;2023-04-08T02:42:58;101811.44;;;7.27;98.33
9695;BME280;4690;52.422;13.486;2023-04-08T02:45:30;101814.34;;;7.25;98.76
9695;BME280;4690;52.422;13.486;2023-04-08T02:47:58;101816.63;;;7.13;98.41
9695;BME280;4690;52.422;13.486;2023-04-08T02:50:24;101812.09;;;6.97;99.27
9695;BME280;4690;52.422;13.486;2023-04-08T02:52:50;101811.72;;;7.01;100.00
9695;BME280;4690;52.422;13.486;2023-04-08T02:55:16;101810.53;;;7.03;99.72
9695;BME280;4690;52.422;13.486;2023-04-08T02:57:42;101811.25;;;6.97;99.62
9695;BME280;4690;52.422;13.486;2023-04-08T03:00:09;101810.59;;;6.87;100.00
9695;BME280;4690;52.422;13.486;2023-04-08T03:02:35;101820.94;;;7.00;100.00
9695;BME280;4690;52.422;13.486;2023-04-08T03:05:01;101810.41;;;6.96;100.00
9695;BME280;4690;52.422;13.486;2023-04-08T03:07:28;101819.75;;;7.02;100.00
9695;BME280;4690;52.422;13.486;2023-04-08T03:09:54;101817.72;;;6.96;99.92
9695;BME280;4690;52.422;13.486;2023-04-08T03:12:21;101817.88;;;6.94;100.00
9695;BME280;4690;52.422;13.486;2023-04-08T03:14:47;101821.66;;;6.93;100.00
9695;BME280;4690;52.422;13.486;2023-04-08T03:17:14;101818.38;;;6.98;100.00
9695;BME280;4690;52.422;13.486;2023-04-08T03:19:40;101820.22;;;7.06;100.00
9695;BME280;4690;52.422;13.486;2023-04-08T03:22:05;101829.59;;;7.03;100.00
9695;BME280;4690;52.422;13.486;2023-04-08T03:24:31;101841.34;;;7.04;100.00
9695;BME280;4690;52.422;13.486;2023-04-08T03:26:57;101832.88;;;6.99;100.00
9695;BME280;4690;52.422;13.486;2023-04-08T03:29:22;101834.41;;;7.01;100.00
9695;BME280;4690;52.422;13.486;2023-04-08T03:31:48;101837.38;;;7.14;99.93
9695;BME280;4690;52.422;13.486;2023-04-08T03:34:14;101834.84;;;7.13;100.00
9695;BME280;4690;52.422;13.486;2023-04-08T03:36:40;101843.66;;;7.23;99.98
9695;BME280;4690;52.422;13.486;2023-04-08T03:39:05;101838.84;;;7.33;99.94
9695;BME280;4690;52.422;13.486;2023-04-08T03:41:31;101836.63;;;7.29;99.32
9695;BME280;4690;52.422;13.486;2023-04-08T03:43:57;101842.28;;;7.27;98.94
9695;BME280;4690;52.422;13.486;2023-04-08T03:46:23;101846.72;;;7.20;99.10
9695;BME280;4690;52.422;13.486;2023-04-08T03:48:49;101845.41;;;7.16;99.47
9695;BME280;4690;52.422;13.486;2023-04-08T03:51:14;101850.53;;;7.11;99.82
9695;BME280;4690;52.422;13.486;2023-04-08T03:53:40;101844.56;;;7.15;99.89
9695;BME280;4690;52.422;13.486;2023-04-08T03:56:06;101856.31;;;7.16;99.48
9695;BME280;4690;52.422;13.486;2023-04-08T03:58:32;101857.97;;;7.25;99.64
9695;BME280;4690;52.422;13.486;2023-04-08T04:00:58;101861.03;;;7.22;99.38
9695;BME280;4690;52.422;13.486;2023-04-08T04:03:24;101862.25;;;7.19;99.24
9695;BME280;4690;52.422;13.486;2023-04-08T04:05:50;101863.94;;;7.21;99.13
9695;BME280;4690;52.422;13.486;2023-04-08T04:08:16;101863.28;;;7.18;99.49
9695;BME280;4690;52.422;13.486;2023-04-08T04:10:42;101859.19;;;7.14;99.77
9695;BME280;4690;52.422;13.486;2023-04-08T04:13:07;101865.09;;;7.26;99.83
9695;BME280;4690;52.422;13.486;2023-04-08T04:15:38;101864.47;;;7.16;98.96
9695;BME280;4690;52.422;13.486;2023-04-08T04:18:05;101870.38;;;7.28;99.54
9695;BME280;4690;52.422;13.486;2023-04-08T04:20:30;101875.69;;;7.29;99.15
9695;BME280;4690;52.422;13.486;2023-04-08T04:22:57;101872.78;;;7.23;99.42
9695;BME280;4690;52.422;13.486;2023-04-08T04:25:23;101883.91;;;7.21;99.70
9695;BME280;4690;52.422;13.486;2023-04-08T04:27:49;101876.22;;;7.16;99.71
9695;BME280;4690;52.422;13.486;2023-04-08T04:30:15;101884.25;;;7.18;99.49
9695;BME280;4690;52.422;13.486;2023-04-08T04:32:42;101888.00;;;7.09;99.32
9695;BME280;4690;52.422;13.486;2023-04-08T04:35:11;101887.66;;;7.12;100.00
9695;BME280;4690;52.422;13.486;2023-04-08T04:37:38;101894.16;;;7.03;100.00
9695;BME280;4690;52.422;13.486;2023-04-08T04:40:05;101899.94;;;7.08;100.00
9695;BME280;4690;52.422;13.486;2023-04-08T04:42:31;101892.06;;;7.21;99.83
9695;BME280;4690;52.422;13.486;2023-04-08T04:44:57;101896.84;;;7.19;100.00
9695;BME280;4690;52.422;13.486;2023-04-08T04:47:24;101902.16;;;7.12;99.51
9695;BME280;4690;52.422;13.486;2023-04-08T04:49:50;101904.72;;;7.06;100.00
9695;BME280;4690;52.422;13.486;2023-04-08T04:52:16;101903.34;;;7.10;100.00
9695;BME280;4690;52.422;13.486;2023-04-08T04:54:42;101910.97;;;7.23;100.00
9695;BME280;4690;52.422;13.486;2023-04-08T04:57:08;101909.28;;;7.22;99.08
9695;BME280;4690;52.422;13.486;2023-04-08T04:59:35;101910.47;;;7.19;99.55
9695;BME280;4690;52.422;13.486;2023-04-08T05:02:01;101913.56;;;7.16;99.32
9695;BME280;4690;52.422;13.486;2023-04-08T05:04:27;101913.38;;;7.09;100.00
9695;BME280;4690;52.422;13.486;2023-04-08T05:06:53;101921.03;;;7.22;100.00
9695;BME280;4690;52.422;13.486;2023-04-08T05:09:19;101916.25;;;7.24;99.70
9695;BME280;4690;52.422;13.486;2023-04-08T05:11:45;101925.75;;;7.28;99.60
9695;BME280;4690;52.422;13.486;2023-04-08T05:14:11;101919.13;;;7.23;99.37
9695;BME280;4690;52.422;13.486;2023-04-08T05:16:37;101916.91;;;7.26;99.28
9695;BME280;4690;52.422;13.486;2023-04-08T05:19:03;101917.94;;;7.25;99.32
9695;BME280;4690;52.422;13.486;2023-04-08T05:21:29;101930.91;;;7.15;99.78
9695;BME280;4690;52.422;13.486;2023-04-08T05:23:55;101934.66;;;7.22;100.00
9695;BME280;4690;52.422;13.486;2023-04-08T05:26:22;101928.88;;;7.17;100.00
9695;BME280;4690;52.422;13.486;2023-04-08T05:28:49;101938.56;;;7.28;100.00
9695;BME280;4690;52.422;13.486;2023-04-08T05:31:17;101939.03;;;7.31;99.83
9695;BME280;4690;52.422;13.486;2023-04-08T05:33:43;101942.09;;;7.36;99.75
9695;BME280;4690;52.422;13.486;2023-04-08T05:36:11;101938.03;;;7.32;99.56
9695;BME280;4690;52.422;13.486;2023-04-08T05:38:38;101941.97;;;7.30;100.00
9695;BME280;4690;52.422;13.486;2023-04-08T05:41:04;101947.53;;;7.45;99.22
9695;BME280;4690;52.422;13.486;2023-04-08T05:43:32;101948.25;;;7.38;99.98
9695;BME280;4690;52.422;13.486;2023-04-08T05:45:58;101955.53;;;7.46;99.28
9695;BME280;4690;52.422;13.486;2023-04-08T05:48:24;101955.94;;;7.35;100.00
9695;BME280;4690;52.422;13.486;2023-04-08T05:50:49;101962.56;;;7.32;99.94
9695;BME280;4690;52.422;13.486;2023-04-08T05:53:15;101960.34;;;7.36;100.00
9695;BME280;4690;52.422;13.486;2023-04-08T05:55:41;101961.50;;;7.50;100.00
9695;BME280;4690;52.422;13.486;2023-04-08T05:58:07;101961.50;;;7.50;99.48
9695;BME280;4690;52.422;13.486;2023-04-08T06:00:33;101961.63;;;7.56;99.48
9695;BME280;4690;52.422;13.486;2023-04-08T06:02:59;101966.38;;;7.54;99.38
9695;BME280;4690;52.422;13.486;2023-04-08T06:05:25;101963.59;;;7.71;99.16
9695;BME280;4690;52.422;13.486;2023-04-08T06:07:51;101970.28;;;7.60;98.60
9695;BME280;4690;52.422;13.486;2023-04-08T06:10:17;101979.44;;;7.75;99.00
9695;BME280;4690;52.422;13.486;2023-04-08T06:12:42;101966.97;;;7.81;98.46
9695;BME280;4690;52.422;13.486;2023-04-08T06:15:08;101981.09;;;7.84;98.42
9695;BME280;4690;52.422;13.486;2023-04-08T06:17:36;101987.09;;;7.80;98.25
9695;BME280;4690;52.422;13.486;2023-04-08T06:20:02;101983.22;;;7.74;98.85
9695;BME280;4690;52.422;13.486;2023-04-08T06:22:29;101987.09;;;7.80;98.64
9695;BME280;4690;52.422;13.486;2023-04-08T06:24:54;101986.84;;;7.98;98.25
9695;BME280;4690;52.422;13.486;2023-04-08T06:27:21;101995.50;;;8.01;98.32
9695;BME280;4690;52.422;13.486;2023-04-08T06:29:46;101993.97;;;7.99;98.05
9695;BME280;4690;52.422;13.486;2023-04-08T06:32:13;102000.19;;;7.84;97.51
9695;BME280;4690;52.422;13.486;2023-04-08T06:34:39;101999.22;;;7.77;98.98
9695;BME280;4690;52.422;13.486;2023-04-08T06:37:05;102003.88;;;8.00;98.70
9695;BME280;4690;52.422;13.486;2023-04-08T06:39:32;102008.31;;;8.01;98.29
9695;BME280;4690;52.422;13.486;2023-04-08T06:41:58;102004.09;;;7.90;98.39
9695;BME280;4690;52.422;13.486;2023-04-08T06:44:24;102015.56;;;8.17;98.78
9695;BME280;4690;52.422;13.486;2023-04-08T06:46:50;102015.22;;;8.20;98.08
9695;BME280;4690;52.422;13.486;2023-04-08T06:49:15;102015.63;;;8.08;98.37
9695;BME280;4690;52.422;13.486;2023-04-08T06:51:41;102023.59;;;8.10;98.80
9695;BME280;4690;52.422;13.486;2023-04-08T06:54:07;102025.63;;;8.16;97.92
9695;BME280;4690;52.422;13.486;2023-04-08T06:56:35;102029.28;;;8.31;98.74
9695;BME280;4690;52.422;13.486;2023-04-08T06:59:02;102035.22;;;8.66;98.46
9695;BME280;4690;52.422;13.486;2023-04-08T07:01:29;102044.22;;;8.75;96.78
9695;BME280;4690;52.422;13.486;2023-04-08T07:03:57;102046.09;;;8.51;97.01
9695;BME280;4690;52.422;13.486;2023-04-08T07:06:22;102044.09;;;8.68;96.88
9695;BME280;4690;52.422;13.486;2023-04-08T07:08:49;102043.59;;;8.88;96.58
9695;BME280;4690;52.422;13.486;2023-04-08T07:11:15;102043.91;;;8.93;95.57
9695;BME280;4690;52.422;13.486;2023-04-08T07:13:41;102058.66;;;8.61;95.99
9695;BME280;4690;52.422;13.486;2023-04-08T07:16:07;102052.66;;;8.88;96.19
9695;BME280;4690;52.422;13.486;2023-04-08T07:18:32;102049.47;;;9.00;95.81
9695;BME280;4690;52.422;13.486;2023-04-08T07:20:58;102055.63;;;9.02;95.19
9695;BME280;4690;52.422;13.486;2023-04-08T07:23:26;102054.91;;;9.23;95.59
9695;BME280;4690;52.422;13.486;2023-04-08T07:25:52;102053.97;;;9.30;94.47
9695;BME280;4690;52.422;13.486;2023-04-08T07:28:19;102057.41;;;9.47;94.07
9695;BME280;4690;52.422;13.486;2023-04-08T07:30:45;102057.47;;;9.54;93.64
9695;BME280;4690;52.422;13.486;2023-04-08T07:33:11;102057.88;;;9.65;93.05
9695;BME280;4690;52.422;13.486;2023-04-08T07:35:37;102061.66;;;9.64;93.54
9695;BME280;4690;52.422;13.486;2023-04-08T07:38:03;102063.66;;;9.85;92.76
9695;BME280;4690;52.422;13.486;2023-04-08T07:40:29;102078.38;;;9.70;91.61
9695;BME280;4690;52.422;13.486;2023-04-08T07:42:55;102071.66;;;9.72;91.25
9695;BME280;4690;52.422;13.486;2023-04-08T07:45:21;102074.56;;;9.71;91.94
9695;BME280;4690;52.422;13.486;2023-04-08T07:47:47;102071.38;;;9.82;92.11
9695;BME280;4690;52.422;13.486;2023-04-08T07:50:13;102076.47;;;9.85;90.93
9695;BME280;4690;52.422;13.486;2023-04-08T07:52:38;102085.69;;;9.54;91.50
9695;BME280;4690;52.422;13.486;2023-04-08T07:55:05;102083.16;;;9.53;92.77
9695;BME280;4690;52.422;13.486;2023-04-08T07:57:31;102080.50;;;9.45;92.13
9695;BME280;4690;52.422;13.486;2023-04-08T07:59:57;102073.28;;;9.52;92.83
9695;BME280;4690;52.422;13.486;2023-04-08T08:02:23;102082.22;;;9.75;93.16
9695;BME280;4690;52.422;13.486;2023-04-08T08:04:49;102077.69;;;9.82;91.92
9695;BME280;4690;52.422;13.486;2023-04-08T08:07:15;102082.69;;;9.79;91.91
9695;BME280;4690;52.422;13.486;2023-04-08T08:09:41;102081.78;;;9.72;92.15
9695;BME280;4690;52.422;13.486;2023-04-08T08:12:07;102091.22;;;9.69;92.23
9695;BME280;4690;52.422;13.486;2023-04-08T08:14:32;102080.22;;;9.54;91.04
9695;BME280;4690;52.422;13.486;2023-04-08T08:16:58;102087.72;;;9.60;91.68
9695;BME280;4690;52.422;13.486;2023-04-08T08:19:24;102087.50;;;9.62;91.76
9695;BME280;4690;52.422;13.486;2023-04-08T08:21:49;102094.13;;;9.68;91.24
9695;BME280;4690;52.422;13.486;2023-04-08T08:24:16;102095.91;;;9.75;91.44
9695;BME280;4690;52.422;13.486;2023-04-08T08:26:42;102093.28;;;9.82;90.72
9695;BME280;4690;52.422;13.486;2023-04-08T08:29:10;102093.63;;;9.94;90.32
9695;BME280;4690;52.422;13.486;2023-04-08T08:31:35;102106.41;;;9.86;90.85
9695;BME280;4690;52.422;13.486;2023-04-08T08:34:01;102105.91;;;9.68;90.26
9695;BME280;4690;52.422;13.486;2023-04-08T08:36:27;102117.78;;;9.46;91.58
9695;BME280;4690;52.422;13.486;2023-04-08T08:38:53;102099.84;;;9.43;91.35
9695;BME280;4690;52.422;13.486;2023-04-08T08:41:22;102114.94;;;9.39;91.62
9695;BME280;4690;52.422;13.486;2023-04-08T08:43:48;102122.59;;;9.43;91.93
9695;BME280;4690;52.422;13.486;2023-04-08T08:46:16;102123.50;;;9.36;92.19
9695;BME280;4690;52.422;13.486;2023-04-08T08:48:43;102117.50;;;9.40;92.41
9695;BME280;4690;52.422;13.486;2023-04-08T08:51:10;102115.16;;;9.52;92.10
9695;BME280;4690;52.422;13.486;2023-04-08T08:53:37;102121.38;;;9.46;92.00
9695;BME280;4690;52.422;13.486;2023-04-08T08:56:04;102123.22;;;9.31;92.96
9695;BME280;4690;52.422;13.486;2023-04-08T08:58:33;102126.09;;;9.52;93.04
9695;BME280;4690;52.422;13.486;2023-04-08T09:00:59;102129.91;;;9.66;92.65
9695;BME280;4690;52.422;13.486;2023-04-08T09:03:27;102133.50;;;9.81;92.38
9695;BME280;4690;52.422;13.486;2023-04-08T09:06:00;102129.63;;;9.91;90.46
9695;BME280;4690;52.422;13.486;2023-04-08T09:08:36;102144.25;;;10.13;89.66
9695;BME280;4690;52.422;13.486;2023-04-08T09:11:20;102144.00;;;10.22;89.92
9695;BME280;4690;52.422;13.486;2023-04-08T09:13:47;102147.09;;;10.04;89.79
9695;BME280;4690;52.422;13.486;2023-04-08T09:16:16;102149.06;;;9.96;90.66
9695;BME280;4690;52.422;13.486;2023-04-08T09:18:44;102153.81;;;10.17;90.36
9695;BME280;4690;52.422;13.486;2023-04-08T09:21:13;102160.81;;;10.19;90.90
9695;BME280;4690;52.422;13.486;2023-04-08T09:23:44;102156.53;;;10.46;90.29
9695;BME280;4690;52.422;13.486;2023-04-08T09:26:16;102152.69;;;10.77;89.21
9695;BME280;4690;52.422;13.486;2023-04-08T09:28:43;102160.75;;;11.00;87.75
9695;BME280;4690;52.422;13.486;2023-04-08T09:31:27;102158.28;;;11.05;86.84
9695;BME280;4690;52.422;13.486;2023-04-08T09:33:59;102161.59;;;11.22;84.69
9695;BME280;4690;52.422;13.486;2023-04-08T09:36:25;102159.94;;;11.21;84.00
9695;BME280;4690;52.422;13.486;2023-04-08T09:38:52;102159.00;;;11.14;83.24
9695;BME280;4690;52.422;13.486;2023-04-08T09:41:20;102163.44;;;11.15;84.43
9695;BME280;4690;52.422;13.486;2023-04-08T09:43:50;102162.25;;;11.03;85.21
9695;BME280;4690;52.422;13.486;2023-04-08T09:46:31;102160.94;;;10.77;85.00
9695;BME280;4690;52.422;13.486;2023-04-08T09:51:58;102163.56;;;10.85;84.54
9695;BME280;4690;52.422;13.486;2023-04-08T09:57:58;102168.81;;;11.02;81.23
9695;BME280;4690;52.422;13.486;2023-04-08T10:00:36;102164.75;;;11.19;79.63
9695;BME280;4690;52.422;13.486;2023-04-08T10:03:34;102165.28;;;11.08;79.17
9695;BME280;4690;52.422;13.486;2023-04-08T10:06:02;102164.88;;;11.11;77.37
9695;BME280;4690;52.422;13.486;2023-04-08T10:08:29;102171.88;;;11.13;77.37
9695;BME280;4690;52.422;13.486;2023-04-08T10:10:57;102168.13;;;10.99;77.06
9695;BME280;4690;52.422;13.486;2023-04-08T10:13:24;102170.16;;;10.91;76.68
9695;BME280;4690;52.422;13.486;2023-04-08T10:18:42;102168.91;;;10.93;75.46
9695;BME280;4690;52.422;13.486;2023-04-08T10:24:07;102172.25;;;11.32;76.04
9695;BME280;4690;52.422;13.486;2023-04-08T10:26:39;102168.50;;;11.61;75.66
9695;BME280;4690;52.422;13.486;2023-04-08T10:31:47;102169.56;;;12.57;72.82
9695;BME280;4690;52.422;13.486;2023-04-08T10:34:24;102164.78;;;12.79;70.08
9695;BME280;4690;52.422;13.486;2023-04-08T10:36:53;102160.44;;;12.57;68.14
9695;BME280;4690;52.422;13.486;2023-04-08T10:39:21;102170.88;;;12.27;70.16
9695;BME280;4690;52.422;13.486;2023-04-08T10:41:50;102165.66;;;12.39;70.69
9695;BME280;4690;52.422;13.486;2023-04-08T10:44:21;102180.19;;;12.26;69.11
9695;BME280;4690;52.422;13.486;2023-04-08T10:46:49;102169.53;;;12.16;70.60
9695;BME280;4690;52.422;13.486;2023-04-08T10:49:16;102164.91;;;12.17;69.96
9695;BME280;4690;52.422;13.486;2023-04-08T10:51:43;102176.03;;;12.37;68.96
9695;BME280;4690;52.422;13.486;2023-04-08T10:54:15;102170.28;;;12.79;70.00
9695;BME280;4690;52.422;13.486;2023-04-08T10:56:49;102168.09;;;13.43;65.17
9695;BME280;4690;52.422;13.486;2023-04-08T10:59:26;102173.19;;;13.46;64.28
9695;BME280;4690;52.422;13.486;2023-04-08T11:01:52;102175.09;;;13.52;63.20
9695;BME280;4690;52.422;13.486;2023-04-08T11:04:18;102166.41;;;13.68;64.30
9695;BME280;4690;52.422;13.486;2023-04-08T11:06:45;102174.66;;;13.49;60.53
9695;BME280;4690;52.422;13.486;2023-04-08T11:09:13;102174.66;;;13.42;60.96
9695;BME280;4690;52.422;13.486;2023-04-08T11:11:44;102172.09;;;13.34;60.91
9695;BME280;4690;52.422;13.486;2023-04-08T11:14:11;102172.09;;;13.34;64.30
9695;BME280;4690;52.422;13.486;2023-04-08T11:16:38;102177.09;;;12.97;63.98
9695;BME280;4690;52.422;13.486;2023-04-08T11:19:05;102182.94;;;12.74;62.78
9695;BME280;4690;52.422;13.486;2023-04-08T11:21:35;102174.34;;;12.97;62.71
9695;BME280;4690;52.422;13.486;2023-04-08T11:24:09;102181.16;;;13.14;62.24
9695;BME280;4690;52.422;13.486;2023-04-08T11:26:37;102185.81;;;13.07;62.19
9695;BME280;4690;52.422;13.486;2023-04-08T11:29:03;102177.16;;;13.23;62.89
9695;BME280;4690;52.422;13.486;2023-04-08T11:31:31;102181.44;;;13.73;59.99
9695;BME280;4690;52.422;13.486;2023-04-08T11:33:58;102177.56;;;14.20;57.89
9695;BME280;4690;52.422;13.486;2023-04-08T11:36:24;102186.81;;;14.59;57.26
9695;BME280;4690;52.422;13.486;2023-04-08T11:38:53;102178.69;;;14.71;55.27
9695;BME280;4690;52.422;13.486;2023-04-08T11:41:20;102178.75;;;14.51;54.54
9695;BME280;4690;52.422;13.486;2023-04-08T11:43:54;102176.81;;;14.65;53.30
9695;BME280;4690;52.422;13.486;2023-04-08T11:46:21;102173.78;;;15.18;52.84
9695;BME280;4690;52.422;13.486;2023-04-08T11:49:05;102177.06;;;15.33;52.04
9695;BME280;4690;52.422;13.486;2023-04-08T11:51:33;102181.06;;;15.06;51.31
9695;BME280;4690;52.422;13.486;2023-04-08T11:54:30;102166.63;;;14.65;53.53
9695;BME280;4690;52.422;13.486;2023-04-08T11:56:57;102174.09;;;14.45;53.52
9695;BME280;4690;52.422;13.486;2023-04-08T11:59:24;102172.66;;;14.29;53.95
9695;BME280;4690;52.422;13.486;2023-04-08T12:01:53;102173.56;;;14.09;55.17
9695;BME280;4690;52.422;13.486;2023-04-08T12:04:19;102166.97;;;14.10;57.23
9695;BME280;4690;52.422;13.486;2023-04-08T12:06:45;102175.91;;;13.99;57.22
9695;BME280;4690;52.422;13.486;2023-04-08T12:09:12;102170.28;;;14.46;58.17
9695;BME280;4690;52.422;13.486;2023-04-08T12:11:38;102184.53;;;14.29;54.53
9695;BME280;4690;52.422;13.486;2023-04-08T12:14:04;102173.78;;;14.01;54.09
9695;BME280;4690;52.422;13.486;2023-04-08T12:16:30;102175.84;;;14.26;53.19
9695;BME280;4690;52.422;13.486;2023-04-08T12:18:56;102170.84;;;15.06;50.97
9695;BME280;4690;52.422;13.486;2023-04-08T12:21:22;102165.53;;;15.68;49.20
9695;BME280;4690;52.422;13.486;2023-04-08T12:23:47;102173.75;;;16.00;45.98
9695;BME280;4690;52.422;13.486;2023-04-08T12:26:13;102171.47;;;15.72;48.99
9695;BME280;4690;52.422;13.486;2023-04-08T12:28:39;102165.75;;;16.10;47.04
9695;BME280;4690;52.422;13.486;2023-04-08T12:31:05;102170.19;;;16.36;45.32
9695;BME280;4690;52.422;13.486;2023-04-08T12:33:31;102163.47;;;16.07;44.63
9695;BME280;4690;52.422;13.486;2023-04-08T12:35:57;102162.19;;;16.28;45.64
9695;BME280;4690;52.422;13.486;2023-04-08T12:38:24;102166.28;;;16.74;43.79
9695;BME280;4690;52.422;13.486;2023-04-08T12:40:51;102167.09;;;16.81;43.49
9695;BME280;4690;52.422;13.486;2023-04-08T12:43:17;102164.88;;;16.53;45.10
9695;BME280;4690;52.422;13.486;2023-04-08T12:45:43;102172.88;;;15.81;46.48
9695;BME280;4690;52.422;13.486;2023-04-08T12:48:09;102166.97;;;15.45;45.67
9695;BME280;4690;52.422;13.486;2023-04-08T12:50:35;102169.41;;;15.35;46.01
9695;BME280;4690;52.422;13.486;2023-04-08T12:53:01;102178.94;;;14.63;46.72
9695;BME280;4690;52.422;13.486;2023-04-08T12:55:27;102163.31;;;14.37;48.73
9695;BME280;4690;52.422;13.486;2023-04-08T12:57:52;102163.06;;;14.96;48.94
9695;BME280;4690;52.422;13.486;2023-04-08T13:00:18;102159.72;;;15.19;48.72
9695;BME280;4690;52.422;13.486;2023-04-08T13:02:45;102157.28;;;15.86;44.38
9695;BME280;4690;52.422;13.486;2023-04-08T13:05:11;102153.84;;;15.66;44.53
9695;BME280;4690;52.422;13.486;2023-04-08T13:07:37;102158.50;;;15.72;45.17
9695;BME280;4690;52.422;13.486;2023-04-08T13:10:03;102158.31;;;15.92;44.14
9695;BME280;4690;52.422;13.486;2023-04-08T13:12:31;102156.28;;;15.99;44.21
9695;BME280;4690;52.422;13.486;2023-04-08T13:14:57;102161.34;;;15.59;45.69
9695;BME280;4690;52.422;13.486;2023-04-08T13:17:24;102148.69;;;15.19;46.63
9695;BME280;4690;52.422;13.486;2023-04-08T13:19:50;102151.38;;;14.94;46.64
9695;BME280;4690;52.422;13.486;2023-04-08T13:22:16;102152.56;;;14.73;45.58
9695;BME280;4690;52.422;13.486;2023-04-08T13:24:41;102163.91;;;14.59;47.13
9695;BME280;4690;52.422;13.486;2023-04-08T13:27:07;102157.28;;;15.05;45.52
9695;BME280;4690;52.422;13.486;2023-04-08T13:29:36;102159.16;;;15.11;44.79
9695;BME280;4690;52.422;13.486;2023-04-08T13:32:02;102143.41;;;15.68;44.52
9695;BME280;4690;52.422;13.486;2023-04-08T13:34:28;102144.69;;;15.90;44.01